createdAt,value
2022-11-26T00:01:31.093Z,86.44
2022-11-26T00:06:44.980Z,86.62
2022-11-26T00:11:46.868Z,86.52
2022-11-26T00:16:48.661Z,86.58
2022-11-26T00:21:50.649Z,86.61
2022-11-26T00:26:52.896Z,86.68
2022-11-26T00:31:54.778Z,86.89
2022-11-26T00:36:56.622Z,86.82
2022-11-26T00:41:58.558Z,86.70
2022-11-26T00:47:00.557Z,86.65
2022-11-26T00:52:02.669Z,86.66
2022-11-26T00:57:04.570Z,86.96
2022-11-26T01:02:06.522Z,86.73
2022-11-26T01:07:10.717Z,86.84
2022-11-26T01:12:15.599Z,86.78
2022-11-26T01:17:17.380Z,86.83
2022-11-26T01:22:24.008Z,86.66
2022-11-26T01:27:25.810Z,86.57
2022-11-26T01:32:29.536Z,86.85
2022-11-26T01:37:31.784Z,86.70
2022-11-26T01:42:46.963Z,86.97
2022-11-26T01:47:50.011Z,86.87
2022-11-26T01:52:52.819Z,86.87
2022-11-26T01:57:54.666Z,86.85
2022-11-26T02:02:56.739Z,86.82
2022-11-26T02:08:00.405Z,86.94
2022-11-26T02:13:02.449Z,86.97
2022-11-26T02:18:08.167Z,87.01
2022-11-26T02:23:31.141Z,86.78
2022-11-26T02:28:57.043Z,86.79
2022-11-26T02:34:15.150Z,86.74
2022-11-26T02:39:23.160Z,86.84
2022-11-26T02:44:45.395Z,86.64
2022-11-26T02:49:50.773Z,86.80
2022-11-26T02:54:54.320Z,86.75
2022-11-26T02:59:56.733Z,86.65
2022-11-26T03:05:01.754Z,86.70
2022-11-26T03:10:04.739Z,86.76
2022-11-26T03:15:07.666Z,86.87
2022-11-26T03:20:10.150Z,86.75
2022-11-26T03:25:12.551Z,86.96
2022-11-26T03:30:14.977Z,86.63
2022-11-26T03:35:16.727Z,86.99
2022-11-26T03:40:19.060Z,86.88
2022-11-26T03:45:23.945Z,86.83
2022-11-26T03:50:25.743Z,86.87
2022-11-26T03:55:27.648Z,86.94
2022-11-26T04:00:29.878Z,86.68
2022-11-26T04:05:32.188Z,86.85
2022-11-26T04:10:34.257Z,86.83
2022-11-26T04:15:36.093Z,86.90
2022-11-26T04:20:38.103Z,86.92
2022-11-26T04:25:39.843Z,86.96
2022-11-26T04:30:42.498Z,86.73
2022-11-26T04:35:44.510Z,86.95
2022-11-26T04:40:48.172Z,86.86
2022-11-26T04:45:49.915Z,86.89
2022-11-26T04:50:51.959Z,86.94
2022-11-26T04:55:53.692Z,87.30
2022-11-26T05:00:55.456Z,87.10
2022-11-26T05:05:57.319Z,87.13
2022-11-26T05:11:01.600Z,86.94
2022-11-26T05:16:03.690Z,87.33
2022-11-26T05:21:07.207Z,87.21
2022-11-26T05:26:08.986Z,87.33
2022-11-26T05:31:12.164Z,87.33
2022-11-26T05:36:14.011Z,87.45
2022-11-26T05:41:15.990Z,87.53
2022-11-26T05:46:18.833Z,87.15
2022-11-26T05:51:20.647Z,87.39
2022-11-26T05:56:22.681Z,87.40
2022-11-26T06:01:24.907Z,87.35
2022-11-26T06:06:26.830Z,87.46
2022-11-26T06:11:28.673Z,87.53
2022-11-26T06:16:30.747Z,87.38
2022-11-26T06:21:32.629Z,87.56
2022-11-26T06:26:34.525Z,87.58
2022-11-26T06:31:36.546Z,87.48
2022-11-26T06:36:38.640Z,87.55
2022-11-26T06:41:40.710Z,87.68
2022-11-26T06:46:42.737Z,87.72
2022-11-26T06:51:44.681Z,87.59
2022-11-26T06:56:46.764Z,87.63
2022-11-26T07:01:48.693Z,87.83
2022-11-26T07:06:50.612Z,87.90
2022-11-26T07:11:52.597Z,87.81
2022-11-26T07:16:54.468Z,88.03
2022-11-26T07:21:56.283Z,87.94
2022-11-26T07:26:58.250Z,87.98
2022-11-26T07:32:00.499Z,88.09
2022-11-26T07:37:02.559Z,88.09
2022-11-26T07:42:07.159Z,87.87
2022-11-26T07:47:09.084Z,88.03
2022-11-26T07:52:11.025Z,88.03
2022-11-26T07:57:12.833Z,88.10
2022-11-26T08:02:16.113Z,87.90
2022-11-26T08:07:25.872Z,88.04
2022-11-26T08:12:31.205Z,88.17
2022-11-26T08:17:32.968Z,88.17
2022-11-26T08:22:35.066Z,87.91
2022-11-26T08:27:36.904Z,87.96
2022-11-26T08:32:38.715Z,87.90
2022-11-26T08:37:42.553Z,87.89
2022-11-26T08:42:44.789Z,87.79
2022-11-26T08:47:46.674Z,87.73
2022-11-26T08:52:48.602Z,87.80
2022-11-26T08:57:50.501Z,87.76
2022-11-26T09:02:52.468Z,87.68
2022-11-26T09:07:55.142Z,87.52
2022-11-26T09:12:57.192Z,87.69
2022-11-26T09:17:58.978Z,87.66
2022-11-26T09:23:00.774Z,87.48
2022-11-26T09:28:02.598Z,87.28
2022-11-26T09:33:04.528Z,87.38
2022-11-26T09:38:06.588Z,87.22
2022-11-26T09:43:20.269Z,87.14
2022-11-26T09:48:26.318Z,87.36
2022-11-26T09:53:33.320Z,87.17
2022-11-26T09:58:48.822Z,86.68
2022-11-26T10:03:52.240Z,86.72
2022-11-26T10:09:15.230Z,86.56
2022-11-26T10:14:26.125Z,86.49
2022-11-26T10:19:42.537Z,86.44
2022-11-26T10:24:44.773Z,86.16
2022-11-26T10:29:52.194Z,86.38
2022-11-26T10:34:56.406Z,86.16
2022-11-26T10:40:11.485Z,86.12
2022-11-26T10:45:21.007Z,86.15
2022-11-26T10:50:47.116Z,85.92
2022-11-26T10:55:47.585Z,85.51
2022-11-26T11:00:49.506Z,85.07
2022-11-26T11:05:52.340Z,84.91
2022-11-26T11:10:57.572Z,85.24
2022-11-26T11:16:02.742Z,85.23
2022-11-26T11:21:06.611Z,85.16
2022-11-26T11:26:18.197Z,84.77
2022-11-26T11:31:22.991Z,84.80
2022-11-26T11:36:29.292Z,84.58
2022-11-26T11:41:36.659Z,84.71
2022-11-26T11:47:10.823Z,84.54
2022-11-26T11:52:45.764Z,84.51
2022-11-26T11:57:58.072Z,84.68
2022-11-26T12:03:11.744Z,84.50
2022-11-26T12:08:22.939Z,84.68
2022-11-26T12:13:28.320Z,84.58
2022-11-26T12:18:54.118Z,84.61
2022-11-26T12:23:55.984Z,84.70
2022-11-26T12:29:14.331Z,84.45
2022-11-26T12:34:18.966Z,84.47
2022-11-26T12:39:51.921Z,84.62
2022-11-26T12:45:03.094Z,84.56
2022-11-26T12:50:10.930Z,84.54
2022-11-26T12:55:18.940Z,84.39
2022-11-26T13:00:26.088Z,84.28
2022-11-26T13:05:58.361Z,84.43
2022-11-26T13:11:15.224Z,84.53
2022-11-26T13:16:49.467Z,84.44
2022-11-26T13:22:11.043Z,84.59
2022-11-26T13:27:30.099Z,84.40
2022-11-26T13:32:37.639Z,84.39
2022-11-26T13:37:51.388Z,84.40
2022-11-26T13:42:56.243Z,84.43
2022-11-26T13:48:06.366Z,84.47
2022-11-26T13:53:31.779Z,84.25
2022-11-26T13:58:48.103Z,84.33
2022-11-26T14:03:50.624Z,84.24
2022-11-26T14:08:54.029Z,84.23
2022-11-26T14:14:24.862Z,84.17
2022-11-26T14:19:42.402Z,84.10
2022-11-26T14:24:50.195Z,84.25
2022-11-26T14:30:06.098Z,84.08
2022-11-26T14:35:20.945Z,84.07
2022-11-26T14:40:33.221Z,84.22
2022-11-26T14:45:35.952Z,84.17
2022-11-26T14:50:38.229Z,84.11
2022-11-26T14:55:40.053Z,84.04
2022-11-26T15:00:42.116Z,83.93
2022-11-26T15:05:45.323Z,83.91
2022-11-26T15:10:54.521Z,84.02
2022-11-26T15:15:59.250Z,83.70
2022-11-26T15:21:04.002Z,83.60
2022-11-26T15:26:06.448Z,83.75
2022-11-26T15:31:10.145Z,83.42
2022-11-26T15:36:17.431Z,83.45
2022-11-26T15:41:20.183Z,83.34
2022-11-26T15:46:34.958Z,83.28
2022-11-26T15:51:52.023Z,83.46
2022-11-26T15:57:05.060Z,83.21
2022-11-26T16:02:21.901Z,83.25
2022-11-26T16:07:27.939Z,83.18
2022-11-26T16:12:32.850Z,83.14
2022-11-26T16:17:35.186Z,83.22
2022-11-26T16:22:36.967Z,83.14
2022-11-26T16:27:38.907Z,83.20
2022-11-26T16:32:40.752Z,83.29
2022-11-26T16:37:48.153Z,83.30
2022-11-26T16:42:51.203Z,83.45
2022-11-26T16:47:55.863Z,83.31
2022-11-26T16:52:57.738Z,83.41
2022-11-26T16:58:02.448Z,83.25
2022-11-26T17:03:04.396Z,83.48
2022-11-26T17:08:10.222Z,83.31
2022-11-26T17:13:12.484Z,83.58
2022-11-26T17:18:23.080Z,83.43
2022-11-26T17:23:25.136Z,83.40
2022-11-26T17:28:28.177Z,83.42
2022-11-26T17:33:30.070Z,83.55
2022-11-26T17:38:32.357Z,83.55
2022-11-26T17:43:35.749Z,83.47
2022-11-26T17:48:48.957Z,83.69
2022-11-26T17:53:55.340Z,83.46
2022-11-26T17:59:01.445Z,83.64
2022-11-26T18:04:06.780Z,83.61
2022-11-26T18:09:12.003Z,83.46
2022-11-26T18:14:17.318Z,83.39
2022-11-26T18:19:22.221Z,83.60
2022-11-26T18:24:24.136Z,83.65
2022-11-26T18:29:27.714Z,83.45
2022-11-26T18:34:29.595Z,83.46
2022-11-26T18:39:31.529Z,83.31
2022-11-26T18:44:33.463Z,83.51
2022-11-26T18:49:35.267Z,83.36
2022-11-26T18:54:37.003Z,83.36
2022-11-26T18:59:39.007Z,83.47
2022-11-26T19:04:41.365Z,83.50
2022-11-26T19:09:43.486Z,83.27
2022-11-26T19:14:45.420Z,83.22
2022-11-26T19:19:47.996Z,83.23
2022-11-26T19:24:49.824Z,83.31
2022-11-26T19:29:51.643Z,83.18
2022-11-26T19:34:54.277Z,83.16
2022-11-26T19:39:56.048Z,83.27
2022-11-26T19:44:57.778Z,83.26
2022-11-26T19:49:59.503Z,83.05
2022-11-26T19:55:01.341Z,83.29
2022-11-26T20:00:06.659Z,83.15
2022-11-26T20:05:09.019Z,83.17
2022-11-26T20:10:11.367Z,83.07
2022-11-26T20:15:13.215Z,83.40
2022-11-26T20:20:15.196Z,83.17
2022-11-26T20:25:17.152Z,82.89
2022-11-26T20:30:20.371Z,83.06
2022-11-26T20:35:23.490Z,83.04
2022-11-26T20:40:25.381Z,83.02
2022-11-26T20:45:27.364Z,83.26
2022-11-26T20:50:29.684Z,83.13
2022-11-26T20:55:31.577Z,82.73
2022-11-26T21:00:33.442Z,83.06
2022-11-26T21:05:35.206Z,82.79
2022-11-26T21:10:39.532Z,82.63
2022-11-26T21:15:43.176Z,82.77
2022-11-26T21:20:45.007Z,82.77
2022-11-26T21:25:47.305Z,82.81
2022-11-26T21:30:49.206Z,82.61
2022-11-26T21:35:51.207Z,82.80
2022-11-26T21:40:53.058Z,82.42
2022-11-26T21:45:54.840Z,82.74
2022-11-26T21:51:02.837Z,82.90
2022-11-26T21:56:26.022Z,82.94
2022-11-26T22:01:30.339Z,82.76
2022-11-26T22:06:32.209Z,82.77
2022-11-26T22:11:37.247Z,82.72
2022-11-26T22:16:39.134Z,82.68
2022-11-26T22:21:42.073Z,82.59
2022-11-26T22:26:45.093Z,82.49
2022-11-26T22:31:48.530Z,82.61
2022-11-26T22:36:51.030Z,82.61
2022-11-26T22:41:52.951Z,82.76
2022-11-26T22:46:54.749Z,82.58
2022-11-26T22:51:56.490Z,82.63
2022-11-26T22:56:58.347Z,82.66
2022-11-26T23:02:00.339Z,82.76
2022-11-26T23:07:02.201Z,82.66
2022-11-26T23:12:04.256Z,82.58
2022-11-26T23:17:06.090Z,82.63
2022-11-26T23:22:08.012Z,82.79
2022-11-26T23:27:09.824Z,82.63
2022-11-26T23:32:11.643Z,82.73
2022-11-26T23:37:13.390Z,82.67
2022-11-26T23:42:15.261Z,82.58
2022-11-26T23:47:17.140Z,82.54
2022-11-26T23:52:18.980Z,82.71
2022-11-26T23:57:20.956Z,82.57
